Date,TemperatureHighF,TemperatureAvgF,TemperatureLowF,DewpointHighF,DewpointAvgF,DewpointLowF,HumidityHigh,HumidityAvg,HumidityLow,PressureMaxIn,PressureMinIn,WindSpeedMaxMPH,WindSpeedAvgMPH,GustSpeedMaxMPH,PrecipitationSumIn
2014-1-1,78.5,60.7,48.0,33.3,27.3,20.8,38,29,17,30.10,30.01,7,0,10,0.00
2014-1-2,79.3,62.2,51.0,36.6,30.8,25.8,41,32,19,30.09,29.96,7,1,9,0.00
2014-1-3,74.8,60.4,50.8,38.6,34.0,29.0,51,38,24,30.00,29.87,5,0,6,0.00
2014-1-4,71.8,57.1,45.9,39.1,34.0,29.9,58,43,26,30.01,29.89,6,0,7,0.00
2014-1-5,74.3,57.5,45.3,33.2,24.3,16.0,49,30,14,30.17,30.00,7,0,9,0.00
2014-1-6,73.7,57.3,44.4,28.2,20.7,14.9,35,25,15,30.23,30.09,8,0,9,0.00
2014-1-7,67.0,56.3,47.6,35.6,25.6,19.3,39,31,22,30.12,30.02,5,0,6,0.00
2014-1-8,68.0,53.8,44.0,36.2,30.1,21.7,54,41,29,30.10,29.97,7,1,9,0.00
2014-1-9,62.0,49.9,40.4,44.8,37.2,30.6,75,62,48,30.07,29.95,6,0,7,0.00
2014-1-10,74.4,57.3,42.9,41.5,36.4,30.9,73,48,25,30.12,30.01,7,0,9,0.00
2014-1-11,75.8,60.0,49.9,42.5,36.1,30.5,59,42,26,30.14,30.00,9,0,10,0.00
2014-1-12,66.9,54.6,44.1,43.3,37.6,28.4,73,54,36,30.20,30.00,8,0,8,0.00
2014-1-13,75.5,58.4,44.3,32.7,26.9,22.6,50,31,18,30.34,30.20,7,0,9,0.00
2014-1-14,81.3,63.7,46.5,29.2,24.3,19.3,40,24,13,30.31,30.17,21,1,22,0.00
2014-1-15,81.0,64.3,51.1,34.3,26.6,19.7,32,25,17,30.24,30.11,11,1,11,0.00
2014-1-16,82.1,64.4,51.1,30.1,23.2,18.1,34,22,11,30.14,30.02,9,1,12,0.00
2014-1-17,81.5,63.5,50.5,33.3,24.0,17.9,30,23,13,30.13,30.00,7,0,9,0.00
2014-1-18,82.1,64.2,51.5,31.2,24.0,19.0,30,22,12,30.08,29.96,7,1,9,0.00
2014-1-19,79.3,63.0,52.2,36.6,25.5,19.5,34,24,14,30.09,30.00,7,0,7,0.00
2014-1-20,81.0,62.7,50.0,33.1,26.1,20.7,33,26,15,30.17,30.04,7,0,9,0.00
2014-1-21,77.6,63.2,52.8,39.2,27.6,22.0,35,26,16,30.16,30.04,7,0,7,0.00
2014-1-22,78.2,63.3,52.2,39.2,30.0,23.6,50,30,17,30.05,29.83,7,0,7,0.00
2014-1-23,76.7,60.5,44.6,32.6,26.9,22.9,51,30,15,30.09,29.84,16,1,17,0.00
2014-1-24,70.7,60.6,52.3,37.1,29.6,24.2,41,31,22,30.21,30.09,6,0,6,0.00
2014-1-25,75.3,63.1,52.4,42.0,34.8,27.9,54,36,23,30.19,30.04,7,0,9,0.00
2014-1-26,70.3,58.2,47.3,45.0,39.8,35.6,74,52,33,30.11,29.98,9,0,10,0.00
2014-1-27,68.3,56.5,46.5,47.2,44.2,40.5,81,65,42,30.07,29.97,12,0,12,0.00
2014-1-28,74.7,58.9,45.7,44.8,40.2,32.1,75,52,29,30.10,30.00,9,0,13,0.00
2014-1-29,79.6,63.6,51.4,43.0,36.1,29.3,55,37,20,30.07,29.89,8,0,10,0.00
2014-1-30,61.1,54.7,46.1,50.3,44.9,36.8,84,70,53,29.92,29.83,12,1,12,0.00
2014-1-31,60.4,53.4,44.8,50.4,45.3,39.9,89,75,50,29.95,29.84,10,1,11,0.02
2014-2-1,59.4,50.2,39.8,39.9,24.3,15.3,83,39,22,30.05,29.92,23,4,26,0.00
2014-2-2,61.7,49.2,36.9,37.1,26.6,18.7,62,43,26,30.10,29.94,12,1,13,0.00
2014-2-3,60.0,50.5,41.2,41.3,37.7,34.7,80,63,43,29.97,29.84,13,1,14,0.00
2014-2-4,59.0,51.5,44.0,43.1,39.8,37.4,84,65,47,30.06,29.96,6,0,9,0.00
2014-2-5,61.5,52.6,46.3,42.7,40.5,38.3,79,65,44,30.11,29.96,12,0,12,0.00
2014-2-6,54.4,49.9,46.7,46.1,43.4,40.3,89,79,65,30.05,29.96,6,0,6,0.07
2014-2-7,62.4,52.9,47.7,48.5,45.6,42.8,94,78,52,30.19,30.01,11,0,12,0.04
2014-2-8,64.4,54.1,47.8,47.5,45.6,43.3,91,74,52,30.26,30.15,9,0,11,0.00
2014-2-9,59.0,51.7,47.8,48.7,46.2,43.5,88,82,66,30.21,30.08,6,0,8,0.00
2014-2-10,68.2,56.2,47.4,51.3,47.7,43.1,89,74,54,30.14,29.98,13,1,14,0.00
2014-2-11,78.9,61.5,49.2,46.4,40.9,36.4,75,50,22,30.08,29.98,13,1,13,0.00
2014-2-12,82.2,65.0,51.9,42.3,35.5,30.3,51,36,16,30.12,30.00,11,1,11,0.00
2014-2-13,84.3,66.4,52.7,42.6,38.6,34.8,53,38,20,30.05,29.92,12,0,12,0.00
2014-2-14,85.3,67.1,51.7,45.1,38.0,31.8,51,36,19,30.01,29.92,8,0,9,0.00
2014-2-15,85.1,65.9,53.2,41.2,34.5,29.1,44,32,19,30.00,29.90,10,0,10,0.00
2014-2-16,80.7,64.2,52.5,41.5,36.1,29.7,46,36,20,30.04,29.92,10,0,11,0.00
2014-2-17,81.5,62.8,49.2,51.0,41.1,33.2,76,47,25,30.04,29.89,13,1,14,0.00
2014-2-18,71.8,57.3,43.0,46.2,43.2,38.1,87,62,35,30.02,29.89,12,0,12,0.00
2014-2-19,68.3,56.6,45.8,51.2,46.4,39.7,84,70,48,29.97,29.84,11,1,13,0.00
2014-2-20,78.5,62.2,47.4,44.5,36.7,27.2,82,44,21,30.03,29.92,10,0,10,0.00
2014-2-21,81.7,65.9,53.7,40.7,33.2,26.2,45,31,18,29.98,29.81,12,1,13,0.00
2014-2-22,77.1,61.1,49.2,39.9,34.7,30.7,51,39,21,29.90,29.80,10,0,11,0.00
2014-2-23,77.5,61.5,47.7,41.3,35.3,30.5,53,39,22,29.96,29.85,11,1,11,0.00
2014-2-24,79.5,61.1,47.3,45.8,38.8,32.5,65,46,24,29.99,29.85,13,1,16,0.00
2014-2-25,77.4,58.7,44.6,49.2,45.1,39.1,84,64,30,30.02,29.88,12,1,13,0.00
2014-2-26,62.7,56.7,50.1,48.9,46.6,44.7,83,70,55,30.06,29.97,9,0,9,0.00
2014-2-27,69.9,60.2,53.3,55.0,49.3,41.6,88,69,40,30.00,29.80,13,1,13,0.11
2014-2-28,61.6,54.9,50.4,57.8,50.7,46.7,91,86,72,29.85,29.58,23,3,34,0.14
2014-3-1,58.9,51.8,48.6,50.3,47.0,44.3,91,84,67,29.95,29.75,19,2,22,0.90
2014-3-2,59.5,52.9,46.0,51.5,47.7,43.0,92,83,65,30.13,29.95,5,0,8,0.03
2014-3-3,71.4,58.3,49.1,51.5,48.4,44.8,90,72,43,30.12,29.97,9,0,11,0.00
2014-3-4,67.1,56.5,48.4,52.8,49.2,45.0,89,77,58,30.04,29.91,11,1,12,0.00
2014-3-5,81.8,64.1,47.2,55.3,47.5,40.6,88,61,24,30.07,29.95,12,1,14,0.00
2014-3-6,76.5,63.4,52.4,54.5,51.6,45.2,83,67,39,30.04,29.89,8,1,10,0.00
2014-3-7,78.0,65.6,51.9,54.8,41.2,25.1,89,49,19,29.95,29.83,17,2,19,0.00
2014-3-8,81.2,67.1,50.9,37.9,32.7,26.8,48,29,19,30.12,29.94,16,1,20,0.00
2014-3-9,81.9,66.7,50.9,37.1,31.9,26.9,45,29,16,30.15,30.00,6,0,9,0.00
2014-3-10,81.6,66.2,50.3,40.3,35.2,30.0,52,34,16,30.05,29.91,14,1,14,0.00
2014-3-11,78.2,63.0,48.6,41.5,36.1,30.5,58,39,23,29.97,29.88,7,0,8,0.00
2014-3-12,76.4,62.3,49.0,40.7,31.4,25.0,56,33,20,30.03,29.87,11,1,14,0.00
2014-3-13,74.8,58.9,48.5,50.2,43.6,31.1,80,58,31,29.99,29.81,16,1,19,0.00
2014-3-14,77.7,60.3,45.6,50.9,46.7,41.4,86,64,32,30.09,29.97,11,1,12,0.00
2014-3-15,88.0,68.0,48.9,47.8,37.5,29.1,81,41,14,30.17,30.06,25,2,25,0.00
2014-3-16,89.7,71.7,56.1,39.0,31.9,24.1,39,24,14,30.21,30.03,13,1,16,0.00
2014-3-17,80.0,64.9,51.5,50.2,39.7,30.0,71,41,23,30.06,29.71,14,1,15,0.00
2014-3-18,78.3,63.6,51.3,49.0,37.5,20.5,87,47,17,29.90,29.75,12,1,13,0.00
2014-3-19,80.7,64.2,48.0,40.8,29.1,23.5,48,29,14,30.02,29.90,14,0,16,0.00
2014-3-20,80.7,63.5,51.1,47.8,38.3,30.9,69,42,21,30.02,29.83,13,1,16,0.00
2014-3-21,70.2,58.1,49.2,51.0,46.7,41.4,83,67,46,29.97,29.88,10,1,12,0.00
2014-3-22,66.5,56.2,52.6,48.8,47.6,45.8,82,74,52,30.04,29.96,8,0,10,0.00
2014-3-23,73.1,60.6,47.9,52.6,49.5,43.9,88,68,46,30.11,29.96,6,0,10,0.00
2014-3-24,75.8,61.5,53.7,55.1,51.7,48.9,88,72,47,30.06,29.93,14,0,14,0.00
2014-3-25,69.0,59.5,54.8,53.2,51.0,49.0,87,74,55,29.99,29.83,16,1,19,0.00
2014-3-26,64.9,56.1,51.3,50.2,46.7,40.6,88,72,45,29.95,29.83,19,2,25,0.05
2014-3-27,64.6,55.9,48.0,47.6,44.6,41.7,88,67,44,30.08,29.94,12,0,13,0.00
2014-3-28,74.4,57.9,45.1,50.0,45.4,41.2,88,66,37,30.15,30.02,12,1,15,0.00
2014-3-29,82.5,63.9,48.8,51.5,46.8,36.9,81,57,21,30.12,29.90,12,1,13,0.00
2014-3-30,72.1,60.5,50.5,49.3,45.0,39.3,81,59,36,30.00,29.89,13,2,15,0.00
2014-3-31,71.3,56.1,44.3,45.7,41.1,37.1,82,59,30,30.00,29.89,17,1,18,0.00
2014-4-1,63.9,53.6,47.8,47.5,41.2,36.2,89,65,38,29.97,29.88,18,2,18,0.21
2014-4-2,59.2,48.6,43.1,45.6,41.8,38.0,88,78,48,30.07,29.90,17,1,17,0.35
2014-4-3,70.3,53.4,39.5,44.5,40.9,33.8,94,67,27,30.13,29.99,10,1,13,0.00
2014-4-4,66.6,54.6,47.0,45.4,41.9,34.4,82,64,38,30.03,29.88,12,1,15,0.00
2014-4-5,69.8,55.1,43.5,48.3,43.0,38.4,86,65,41,30.03,29.89,12,1,13,0.00
2014-4-6,82.3,64.3,47.1,42.8,39.1,33.8,78,45,20,30.08,29.93,23,3,30,0.00
2014-4-7,91.3,71.5,51.8,48.4,40.4,34.0,55,35,16,30.06,29.96,12,1,16,0.00
2014-4-8,93.7,75.2,57.7,45.6,39.5,32.2,50,31,13,30.07,29.93,12,1,12,0.00
2014-4-9,93.8,74.3,58.8,44.2,35.3,23.4,43,27,9,30.00,29.86,10,0,12,0.00
2014-4-10,92.5,72.0,54.7,40.0,32.3,24.3,39,25,10,29.94,29.82,11,0,13,0.00
2014-4-11,88.4,71.5,57.5,44.3,37.7,27.0,59,32,16,29.89,29.74,12,1,15,0.00
2014-4-12,72.8,60.0,51.6,50.5,46.6,41.1,81,63,38,29.92,29.80,13,1,13,0.00
2014-4-13,72.5,59.9,52.5,50.1,47.7,45.8,83,66,43,30.00,29.88,10,1,12,0.00
2014-4-14,89.0,69.3,48.1,47.8,41.7,31.9,87,46,14,30.03,29.91,12,1,14,0.00
2014-4-15,87.8,70.9,55.8,48.8,41.1,34.2,54,36,18,29.97,29.74,13,1,17,0.00
2014-4-16,83.0,65.3,49.2,52.7,46.5,39.1,74,53,28,29.82,29.70,13,1,15,0.00
2014-4-17,81.5,64.2,51.2,56.6,51.9,45.3,86,66,41,29.86,29.75,13,1,15,0.00
2014-4-18,76.6,64.2,57.2,54.5,52.3,49.4,84,67,40,29.89,29.78,14,1,15,0.00
2014-4-19,81.8,65.5,52.0,55.4,51.9,47.6,87,64,37,30.00,29.88,12,1,14,0.00
2014-4-20,88.3,69.4,53.7,55.9,52.7,48.3,84,59,27,30.00,29.91,11,1,14,0.00
2014-4-21,90.3,71.7,55.4,56.1,50.7,40.4,79,52,21,30.00,29.86,14,1,16,0.00
2014-4-22,74.9,62.8,55.0,53.6,50.4,45.9,86,66,37,29.91,29.80,13,1,15,0.00
2014-4-23,77.4,62.7,51.9,49.8,47.2,43.1,84,60,31,29.92,29.83,12,1,13,0.00
2014-4-24,84.1,66.1,51.9,49.7,44.8,41.0,71,49,26,29.94,29.81,13,1,15,0.00
2014-4-25,75.7,61.6,50.6,53.3,47.9,43.0,84,62,41,29.89,29.72,14,1,16,0.29
2014-4-26,65.0,55.3,47.4,48.5,42.3,38.4,87,64,42,29.96,29.69,20,2,25,0.28
2014-4-27,69.9,57.5,46.5,50.2,45.5,42.3,88,66,44,29.99,29.90,13,1,14,0.00
2014-4-28,87.5,67.5,48.2,49.2,43.0,35.7,81,47,20,29.99,29.83,17,1,17,0.00
2014-4-29,88.7,75.0,60.3,39.8,33.6,26.9,41,24,13,30.03,29.92,16,2,18,0.00
2014-4-30,88.2,75.1,61.5,34.5,27.5,21.7,31,18,12,30.03,29.88,30,4,33,0.00
2014-5-1,92.8,77.1,65.3,37.1,29.5,20.8,30,18,12,30.01,29.86,19,2,24,0.00
2014-5-2,98.5,79.5,61.9,43.5,35.0,27.3,32,21,12,29.95,29.82,18,1,18,0.00
2014-5-3,96.1,77.9,60.1,44.0,38.4,31.8,39,26,13,29.88,29.78,14,1,15,0.00
2014-5-4,91.7,74.0,57.5,45.5,38.6,31.2,44,29,18,29.93,29.80,16,1,16,0.00
2014-5-5,80.7,65.5,50.7,53.3,43.7,32.9,72,47,23,29.93,29.81,14,1,15,0.00
2014-5-6,69.0,57.7,50.5,50.2,45.9,39.9,85,67,37,29.86,29.74,17,1,19,0.10
2014-5-7,71.0,58.5,48.0,50.9,47.0,43.8,88,67,44,29.97,29.83,13,1,14,0.00
2014-5-8,76.7,62.7,54.7,51.5,48.9,46.7,79,62,38,30.02,29.93,14,1,15,0.00
2014-5-9,79.8,63.7,50.5,54.0,50.1,45.5,85,63,39,30.02,29.89,13,1,13,0.00
2014-5-10,75.5,62.1,53.5,56.0,50.9,46.3,83,68,46,29.92,29.74,14,1,16,0.00
2014-5-11,79.7,66.9,51.9,47.4,31.2,21.7,80,32,13,29.93,29.77,26,6,27,0.00
2014-5-12,90.3,73.4,53.0,36.8,32.5,26.5,48,25,12,30.00,29.86,18,2,21,0.00
2014-5-13,91.7,75.5,59.0,39.9,32.2,24.8,40,22,11,30.05,29.96,15,1,16,0.00
2014-5-14,97.3,80.2,59.4,39.7,31.7,23.3,32,18,11,30.03,29.89,17,1,18,0.00
2014-5-15,103.2,83.8,65.4,42.8,36.0,28.7,31,19,11,29.98,29.84,14,1,17,0.00
2014-5-16,100.4,82.6,65.0,46.8,39.5,32.1,36,23,12,29.93,29.79,15,1,16,0.00
2014-5-17,95.5,78.6,62.2,51.8,44.5,35.8,53,31,19,29.84,29.74,12,1,16,0.00
2014-5-18,86.0,70.1,57.1,58.1,51.3,45.3,77,53,31,29.83,29.74,12,1,15,0.00
2014-5-19,81.8,67.1,56.1,54.7,52.2,49.1,84,61,37,29.89,29.80,15,2,17,0.00
2014-5-20,74.2,63.1,56.2,51.5,47.8,43.7,77,59,38,29.93,29.85,16,2,18,0.00
2014-5-21,75.2,62.0,51.5,51.7,48.4,45.4,80,63,41,29.95,29.86,12,1,14,0.00
2014-5-22,73.3,62.2,56.6,53.6,52.1,48.9,82,70,50,29.97,29.88,14,1,16,0.00
2014-5-23,78.6,65.5,58.1,56.9,53.7,51.8,82,67,45,29.97,29.87,11,1,15,0.00
2014-5-24,77.7,65.3,59.0,58.1,55.0,53.0,82,70,50,29.96,29.85,11,1,14,0.00
2014-5-25,90.3,72.0,60.3,60.9,57.3,54.5,82,63,34,29.93,29.78,15,1,15,0.00
2014-5-26,95.3,76.6,58.7,61.9,58.3,54.2,87,57,31,29.91,29.81,12,1,15,0.00
2014-5-27,96.8,77.6,60.5,61.7,58.6,53.6,87,56,24,29.90,29.80,20,1,20,0.00
2014-5-28,93.4,75.0,61.3,63.1,57.7,49.6,86,59,29,29.86,29.72,13,1,15,0.00
2014-5-29,89.7,72.7,57.3,59.4,56.2,52.2,85,59,33,29.84,29.76,12,1,13,0.00
2014-5-30,97.0,75.9,57.2,58.3,53.0,40.3,78,50,15,29.83,29.73,13,1,15,0.00
2014-5-31,94.0,75.3,57.5,53.9,46.7,36.9,72,42,15,29.83,29.76,14,1,15,0.00
2014-6-1,94.8,75.3,55.7,49.7,44.6,33.6,62,37,13,29.82,29.72,14,1,15,0.00
2014-6-2,92.2,74.1,56.9,54.8,47.5,40.5,62,42,18,29.81,29.76,12,1,13,0.00
2014-6-3,94.5,74.7,54.1,51.8,45.5,32.7,71,40,13,29.85,29.72,12,1,13,0.00
2014-6-4,94.0,75.3,56.4,54.1,44.7,35.5,57,38,14,29.80,29.68,11,1,17,0.00
2014-6-5,94.5,74.6,56.7,51.7,46.9,41.8,62,41,20,29.79,29.67,12,1,15,0.00
2014-6-6,91.0,72.6,58.0,58.7,54.7,48.5,73,56,30,29.77,29.69,14,1,14,0.00
2014-6-7,88.7,71.1,57.2,60.8,56.5,52.4,86,63,36,29.78,29.67,7,1,11,0.00
2014-6-8,95.6,76.0,57.7,63.6,58.1,52.8,86,58,32,29.77,29.67,12,1,13,0.00
2014-6-9,99.9,78.5,61.7,64.2,59.6,54.3,80,56,29,29.73,29.62,15,1,17,0.00
2014-6-10,88.4,73.0,61.4,62.8,59.3,55.2,87,64,41,29.83,29.68,14,1,15,0.00
2014-6-11,93.2,73.4,59.8,59.2,56.0,53.2,84,58,27,29.85,29.75,12,1,17,0.00
2014-6-12,93.0,73.9,58.2,58.9,54.3,37.1,86,55,19,29.88,29.80,15,1,17,0.00
2014-6-13,89.9,72.4,56.7,58.1,52.4,40.6,87,54,28,29.88,29.77,16,1,17,0.00
2014-6-14,90.2,71.7,55.4,57.1,53.3,50.0,84,56,28,29.83,29.72,14,1,14,0.00
2014-6-15,87.6,71.6,57.6,57.8,53.9,48.7,86,58,31,29.82,29.73,13,1,17,0.00
2014-6-16,87.3,71.0,58.2,56.0,52.6,43.5,86,56,30,29.85,29.75,15,1,15,0.00
2014-6-17,86.0,70.1,55.7,55.4,51.5,43.8,80,55,31,29.87,29.78,15,1,18,0.00
2014-6-18,86.5,70.0,55.6,56.3,50.4,42.8,77,52,30,29.89,29.81,12,1,14,0.00
2014-6-19,95.0,77.2,56.1,59.2,52.3,44.6,69,44,27,29.90,29.79,12,1,14,0.00
2014-6-20,99.0,78.9,58.5,60.4,53.9,47.8,70,45,22,29.87,29.76,12,1,16,0.00
2014-6-21,97.5,78.9,60.8,59.0,51.3,36.2,69,43,16,29.81,29.74,13,1,15,0.00
2014-6-22,94.2,74.6,57.4,60.3,56.2,50.1,82,56,25,29.84,29.75,15,1,16,0.00
2014-6-23,92.8,73.8,58.3,60.8,57.1,50.0,85,59,25,29.87,29.78,13,1,15,0.00
2014-6-24,91.0,74.1,59.3,62.5,58.6,54.2,86,61,36,29.89,29.79,13,1,14,0.00
2014-6-25,91.5,75.2,60.9,62.3,59.0,55.4,85,60,34,29.85,29.75,12,1,15,0.00
2014-6-26,89.3,72.7,60.9,63.5,59.3,55.7,86,65,37,29.85,29.74,14,1,15,0.00
2014-6-27,87.8,73.5,64.5,63.0,59.9,57.7,81,64,42,29.82,29.73,13,1,16,0.00
2014-6-28,93.4,75.6,61.3,65.5,61.4,56.9,87,64,37,29.80,29.72,12,1,13,0.00
2014-6-29,100.0,78.7,62.7,66.1,62.1,57.8,86,60,30,29.81,29.71,12,1,15,0.00
2014-6-30,96.4,76.9,63.7,66.3,62.6,59.2,87,64,36,29.83,29.72,13,1,13,0.00
2014-7-1,97.8,78.5,62.9,67.0,62.6,58.2,87,62,33,29.81,29.70,13,1,16,0.00
2014-7-2,98.0,79.6,63.9,66.7,62.5,58.2,86,59,32,29.83,29.73,12,1,15,0.00
2014-7-3,104.1,83.2,63.8,64.1,60.8,52.9,84,52,20,29.86,29.73,13,1,13,0.00
2014-7-4,100.9,83.8,68.6,69.8,61.9,53.3,77,50,31,29.93,29.82,14,1,16,0.00
2014-7-5,99.0,83.5,68.8,63.4,56.1,50.3,57,41,25,29.97,29.86,15,1,17,0.00
2014-7-6,100.0,82.9,67.2,61.0,54.7,50.2,65,40,24,29.94,29.80,14,1,15,0.00
2014-7-7,101.5,83.1,67.2,61.4,55.1,50.2,62,40,22,29.85,29.73,15,1,16,0.00
2014-7-8,100.9,82.1,65.5,64.7,58.0,51.7,65,46,25,29.88,29.75,13,1,14,0.00
2014-7-9,98.7,80.3,64.8,65.1,60.2,53.9,83,54,27,29.89,29.77,16,1,16,0.00
2014-7-10,93.2,72.7,63.2,64.2,60.5,56.8,86,68,30,29.90,29.80,14,1,14,0.00
2014-7-11,93.0,79.3,62.5,62.4,59.2,54.2,84,53,31,29.93,29.84,15,1,16,0.00
2014-7-12,94.8,77.7,62.3,63.3,58.9,55.0,79,55,32,29.93,29.82,12,1,14,0.00
2014-7-13,101.7,82.5,66.2,68.1,62.5,58.1,77,54,31,29.88,29.75,12,1,14,0.00
2014-7-14,92.8,77.4,70.9,69.2,64.1,61.2,74,64,46,29.94,29.81,11,0,13,0.00
2014-7-15,94.2,77.6,67.5,69.4,64.2,60.7,82,65,43,29.97,29.86,13,1,15,0.00
2014-7-16,91.2,75.4,67.1,64.2,61.2,58.0,82,64,35,29.98,29.86,13,1,15,0.00
2014-7-17,85.0,70.4,62.8,61.4,58.2,55.0,83,67,42,29.99,29.87,11,1,12,0.00
2014-7-18,88.8,71.5,58.2,60.3,56.7,52.8,84,62,32,29.98,29.85,10,1,14,0.00
2014-7-19,86.6,71.9,62.6,63.2,59.5,56.4,83,66,45,29.93,29.82,12,0,13,0.00
2014-7-20,89.7,74.3,63.2,65.5,61.0,57.3,83,65,44,29.95,29.84,12,1,14,0.00
2014-7-21,92.5,75.5,60.6,64.0,59.9,56.0,87,62,33,29.99,29.89,14,1,15,0.00
2014-7-22,97.0,78.4,61.1,62.6,58.6,54.6,83,54,27,29.99,29.90,12,1,14,0.00
2014-7-23,102.1,82.6,64.7,61.8,55.5,51.6,68,43,24,29.95,29.80,14,1,15,0.00
2014-7-24,109.2,87.0,65.9,63.4,53.6,47.1,55,35,13,29.84,29.64,12,1,14,0.00
2014-7-25,98.7,82.6,69.7,66.4,59.8,53.6,65,48,24,29.85,29.74,12,0,14,0.00
2014-7-26,101.2,83.6,69.0,65.5,61.2,57.4,75,50,26,29.90,29.80,14,1,15,0.00
2014-7-27,94.2,82.2,68.7,65.3,60.7,55.9,71,50,34,29.93,29.83,10,1,11,0.00
2014-7-28,96.1,82.3,71.3,63.4,53.2,41.6,61,38,22,30.00,29.88,12,0,13,0.00
2014-7-29,98.2,82.3,66.7,60.7,54.0,43.0,58,39,26,29.97,29.84,11,0,12,0.00
2014-7-30,102.0,84.1,67.5,63.9,59.8,55.8,70,47,26,29.89,29.80,13,1,14,0.00
2014-7-31,103.4,85.4,68.8,65.8,62.5,59.2,74,49,28,29.85,29.74,11,1,13,0.00
2014-8-1,104.4,84.9,67.1,68.4,63.1,59.6,78,51,29,29.84,29.74,12,1,14,0.00
2014-8-2,87.7,76.2,70.0,70.2,66.0,61.0,89,71,47,29.91,29.78,18,1,21,0.15
2014-8-3,88.5,75.3,68.3,70.7,67.1,63.4,92,78,44,29.90,29.80,15,1,17,1.07
2014-8-4,92.1,77.6,67.9,70.5,62.0,50.3,93,64,27,29.94,29.86,13,0,15,0.00
2014-8-5,95.3,76.6,60.5,56.7,52.3,43.2,76,48,20,29.97,29.88,13,1,14,0.00
2014-8-6,89.9,73.1,58.2,59.0,54.9,47.0,83,56,24,29.98,29.85,11,1,15,0.00
2014-8-7,89.4,72.6,58.1,60.7,57.8,53.6,87,63,34,29.93,29.80,10,1,15,0.00
2014-8-8,93.8,74.3,60.2,64.2,60.7,56.3,89,66,35,29.90,29.77,13,1,13,0.00
2014-8-9,96.4,76.6,61.8,65.8,62.3,57.9,89,65,33,29.92,29.81,12,1,14,0.00
2014-8-10,98.3,79.6,63.8,63.7,60.1,52.7,87,56,26,29.92,29.82,14,1,15,0.00
2014-8-11,97.4,81.0,67.2,64.0,61.3,56.5,80,54,28,29.89,29.79,14,1,16,0.00
2014-8-12,97.0,79.7,66.9,66.6,61.9,58.2,79,57,33,29.90,29.77,12,1,16,0.00
2014-8-13,95.9,78.5,65.4,66.6,62.4,59.4,83,60,35,29.91,29.79,13,1,15,0.00
2014-8-14,99.3,77.0,61.8,63.3,60.1,56.3,84,61,29,29.89,29.80,16,0,16,0.00
2014-8-15,99.8,84.9,65.6,64.8,59.0,50.7,62,43,29,29.92,29.81,13,1,13,0.00
2014-8-16,100.5,82.6,65.3,63.4,57.0,48.9,65,44,28,29.94,29.82,12,1,14,0.00
2014-8-17,100.8,83.2,67.5,61.1,55.9,49.9,60,41,24,29.89,29.75,10,0,12,0.00
2014-8-18,101.5,82.2,66.4,68.1,58.5,47.9,72,47,25,29.80,29.67,15,1,15,0.00
2014-8-19,90.3,74.5,64.0,62.8,60.4,57.1,85,64,37,29.82,29.72,15,1,16,0.00
2014-8-20,85.6,69.5,63.7,64.5,60.0,56.3,85,73,38,29.89,29.81,7,0,10,0.04
2014-8-21,93.5,75.5,60.8,65.0,60.8,55.9,89,64,35,29.91,29.79,18,1,22,0.00
2014-8-22,92.6,77.3,65.3,65.5,60.9,50.1,81,59,39,29.90,29.81,13,1,15,0.00
2014-8-23,92.8,75.3,59.4,56.3,49.1,41.3,59,42,23,29.91,29.77,12,1,13,0.00
2014-8-24,93.0,74.2,58.0,58.7,52.1,46.0,69,48,21,29.86,29.72,12,1,14,0.00
2014-8-25,91.0,75.5,61.5,59.9,55.9,49.7,74,53,33,29.88,29.79,12,1,13,0.00
2014-8-26,94.4,78.4,64.1,62.0,55.5,48.5,73,48,28,29.92,29.83,15,1,19,0.00
2014-8-27,97.1,81.1,65.5,59.2,55.1,50.2,62,43,26,29.98,29.89,12,1,14,0.00
2014-8-28,101.8,82.5,66.8,62.6,56.0,51.9,62,43,24,29.96,29.79,13,1,14,0.00
2014-8-29,102.8,83.1,65.9,59.2,53.6,49.2,59,39,20,29.83,29.69,12,1,15,0.00
2014-8-30,103.8,82.1,63.4,59.8,55.4,49.7,65,44,17,29.76,29.65,12,1,14,0.00
2014-8-31,99.0,81.5,65.9,62.0,57.7,52.5,70,47,25,29.76,29.66,12,1,14,0.00
2014-9-1,101.2,81.0,64.0,63.2,53.2,40.3,64,42,13,29.76,29.67,12,1,15,0.00
2014-9-2,97.8,77.9,60.5,64.0,57.4,41.7,81,52,26,29.79,29.66,10,1,13,0.00
2014-9-3,94.6,76.3,63.8,64.1,61.4,57.0,87,63,30,29.74,29.60,11,1,13,0.00
2014-9-4,90.7,74.1,64.1,64.1,61.1,58.1,86,67,35,29.75,29.65,10,0,12,0.00
2014-9-5,100.8,78.6,60.1,66.1,59.5,52.5,81,56,21,29.83,29.72,12,1,15,0.00
2014-9-6,102.5,84.0,66.9,69.0,63.9,60.5,82,54,30,29.85,29.70,11,1,16,0.00
2014-9-7,99.4,84.2,72.8,71.6,64.8,58.0,72,53,37,29.77,29.66,14,1,21,0.01
2014-9-8,89.2,79.1,73.3,63.8,60.0,54.6,67,53,39,29.82,29.73,9,0,10,0.01
2014-9-9,92.9,79.4,68.6,61.6,55.9,50.7,63,46,30,29.87,29.76,11,1,14,0.00
2014-9-10,100.1,79.9,62.7,61.1,54.2,48.9,62,44,22,29.85,29.70,10,1,14,0.00
2014-9-11,101.1,81.8,66.5,61.9,55.9,51.6,61,44,22,29.82,29.68,16,1,16,0.00
2014-9-12,103.7,83.4,67.1,65.8,57.8,53.0,63,44,21,29.78,29.65,14,1,14,0.00
2014-9-13,106.5,86.4,69.5,63.7,56.6,50.4,60,39,19,29.73,29.61,13,1,15,0.00
2014-9-14,108.1,90.1,76.6,63.3,57.4,51.4,47,35,19,29.70,29.58,12,1,16,0.00
2014-9-15,108.2,90.6,77.3,65.3,59.3,55.6,50,37,20,29.73,29.62,14,1,16,0.00
2014-9-16,104.5,87.5,79.1,72.3,64.4,54.3,66,47,28,29.72,29.61,15,2,18,0.00
2014-9-17,100.3,86.5,75.7,68.4,63.7,53.7,66,48,34,29.72,29.60,10,1,13,0.00
2014-9-18,88.5,76.1,65.7,64.4,59.9,54.9,79,59,39,29.80,29.70,12,1,14,0.00
2014-9-19,86.1,73.4,66.9,62.8,61.0,59.0,82,67,41,29.85,29.74,9,0,11,0.00
2014-9-20,84.2,71.6,61.6,63.8,60.6,56.7,87,70,48,29.89,29.80,11,1,12,0.00
2014-9-21,86.1,71.4,63.4,63.0,59.2,51.0,85,68,30,29.95,29.84,7,0,9,0.00
2014-9-22,94.3,75.3,60.0,62.0,57.6,50.2,79,57,31,29.93,29.82,10,0,14,0.00
2014-9-23,98.5,78.1,60.1,59.8,55.4,50.1,75,50,21,29.92,29.80,7,0,12,0.00
2014-9-24,100.0,81.6,65.2,60.2,54.5,48.9,64,42,25,29.87,29.75,11,0,13,0.00
2014-9-25,98.0,81.3,67.8,64.2,54.9,39.1,61,43,20,29.87,29.76,12,0,14,0.00
2014-9-26,90.4,75.8,64.0,62.3,57.9,53.2,77,55,34,29.83,29.71,14,1,17,0.00
2014-9-27,78.8,67.0,57.8,57.1,53.5,50.1,84,64,37,29.84,29.71,10,1,16,0.00
2014-9-28,78.7,66.8,59.0,57.0,53.8,49.4,82,65,37,29.89,29.80,10,1,14,0.00
2014-9-29,83.7,70.1,60.0,58.5,55.2,51.4,85,62,35,29.89,29.79,12,1,14,0.00
2014-9-30,90.0,73.4,59.0,55.5,50.6,46.8,68,48,24,29.84,29.69,9,1,12,0.00
2014-10-1,92.3,73.1,58.8,59.9,53.1,46.4,70,52,26,29.83,29.68,10,0,13,0.00
2014-10-2,95.0,76.8,60.6,54.4,40.5,32.5,72,32,13,29.96,29.83,9,0,11,0.00
2014-10-3,98.3,78.7,62.2,46.7,34.1,27.2,37,21,10,30.01,29.88,9,0,9,0.00
2014-10-4,102.2,82.7,66.8,47.2,38.8,29.7,34,22,12,29.93,29.77,10,1,12,0.00
2014-10-5,101.4,81.0,65.9,49.1,42.0,34.8,38,26,14,29.87,29.75,10,1,14,0.00
2014-10-6,97.0,78.8,63.0,48.1,42.6,35.4,39,29,17,29.87,29.74,11,0,12,0.00
2014-10-7,93.4,77.6,64.8,57.8,47.5,39.7,58,36,18,29.87,29.74,12,0,12,0.00
2014-10-8,91.0,75.5,62.3,56.6,51.2,46.0,64,45,25,29.82,29.71,13,1,14,0.00
2014-10-9,84.2,69.4,57.1,59.5,54.6,47.6,84,61,33,29.90,29.81,10,0,12,0.00
2014-10-10,86.7,72.0,57.4,59.5,56.0,51.2,84,60,32,29.95,29.84,13,0,13,0.00
2014-10-11,90.8,70.7,56.5,58.8,53.3,47.6,74,57,28,29.93,29.82,12,0,13,0.00
2014-10-12,89.5,71.9,58.9,60.1,54.5,44.5,77,56,33,29.89,29.76,11,0,13,0.00
2014-10-13,94.6,74.7,57.9,56.2,47.5,35.7,78,44,14,29.95,29.88,12,0,15,0.00
2014-10-14,83.3,69.1,55.9,58.6,51.0,36.1,79,54,36,29.93,29.83,12,0,15,0.00
2014-10-15,78.2,67.2,59.4,59.3,56.2,52.3,89,69,46,29.96,29.86,10,1,13,0.00
2014-10-16,78.4,65.3,54.3,56.8,53.4,49.2,87,68,42,29.99,29.85,12,0,12,0.00
2014-10-17,77.0,64.5,54.6,57.5,54.4,49.9,87,71,50,29.96,29.85,11,0,11,0.00
2014-10-18,77.9,66.8,59.5,57.0,55.0,52.4,84,67,47,29.90,29.77,9,0,10,0.00
2014-10-19,81.7,66.7,54.7,59.4,54.8,49.8,86,68,41,29.89,29.78,10,0,11,0.00
2014-10-20,80.9,67.0,55.8,61.4,57.0,50.9,85,72,47,29.91,29.80,8,0,10,0.00
2014-10-21,82.1,67.5,56.1,58.3,54.5,47.9,92,67,32,29.88,29.77,9,0,12,0.00
2014-10-22,90.3,70.8,55.0,53.7,48.1,42.4,77,49,20,29.94,29.83,7,0,9,0.00
2014-10-23,92.7,73.8,59.9,51.3,42.2,34.9,49,34,17,29.95,29.85,7,0,10,0.00
2014-10-24,93.0,74.1,59.8,50.0,43.2,37.0,45,34,20,29.96,29.85,12,0,13,0.00
2014-10-25,86.3,71.6,60.7,55.7,49.5,41.8,71,47,30,29.99,29.91,14,0,16,0.00
2014-10-26,76.7,65.0,52.8,57.9,51.8,46.0,78,64,39,29.96,29.81,9,0,10,0.00
2014-10-27,78.8,65.5,54.0,55.9,52.6,48.1,85,65,42,29.92,29.81,9,0,13,0.00
2014-10-28,84.8,67.3,54.5,54.4,50.2,45.0,82,58,28,30.00,29.89,9,0,9,0.00
2014-10-29,90.0,71.9,59.3,54.1,45.6,40.0,62,43,18,30.00,29.88,10,0,12,0.00
2014-10-30,85.1,68.6,55.8,57.6,46.5,36.7,79,48,25,29.96,29.85,13,0,13,0.00
2014-10-31,70.3,61.7,54.0,56.0,53.7,49.4,88,76,58,29.93,29.80,10,0,13,0.00
2014-11-1,63.9,57.8,51.2,54.3,49.2,44.0,87,74,54,29.96,29.77,14,1,17,0.26
2014-11-2,67.4,54.3,45.5,48.6,45.2,41.9,91,73,46,30.05,29.95,7,0,10,0.01
2014-11-3,72.8,58.4,45.0,44.4,33.9,22.6,84,46,20,30.15,30.04,19,1,19,0.00
2014-11-4,77.8,61.0,45.2,32.4,27.9,24.1,50,31,15,30.18,30.05,8,0,9,0.00
2014-11-5,86.3,67.7,51.7,38.4,30.3,22.6,39,26,14,30.11,29.99,11,0,12,0.00
2014-11-6,88.8,70.8,57.3,44.2,36.2,30.8,42,30,15,30.15,30.02,10,0,10,0.00
2014-11-7,88.6,70.8,56.3,42.9,36.7,32.3,43,30,16,30.10,29.93,6,0,7,0.00
2014-11-8,90.8,72.3,57.0,45.5,38.4,32.8,43,31,18,30.02,29.90,7,0,7,0.00
2014-11-9,86.9,69.8,56.2,50.3,43.1,35.8,67,40,22,29.96,29.73,10,0,10,0.00
2014-11-10,72.1,59.2,49.8,54.6,49.7,42.8,92,72,50,29.87,29.77,8,0,9,0.00
2014-11-11,64.4,60.1,57.0,52.8,50.3,47.9,83,70,58,29.93,29.86,6,0,6,0.00
2014-11-12,67.2,59.7,54.8,52.6,50.5,48.0,83,72,52,30.00,29.89,9,0,10,0.00
2014-11-13,64.9,58.2,54.1,52.8,50.8,49.2,86,77,61,30.06,29.97,2,0,9,0.00
2014-11-14,69.9,61.6,57.0,54.9,53.1,51.6,85,74,54,30.00,29.92,10,0,11,0.00
2014-11-15,67.3,60.4,53.9,54.4,52.3,49.1,86,75,56,30.05,29.94,7,0,7,0.00
2014-11-16,70.2,59.2,47.6,50.6,25.9,10.9,88,33,13,30.19,29.99,18,2,22,0.00
2014-11-17,73.6,58.1,45.9,28.9,22.2,16.8,37,26,14,30.17,30.06,6,0,7,0.00
2014-11-18,75.1,59.7,46.8,34.5,23.7,18.9,40,26,15,30.18,30.07,9,0,11,0.00
2014-11-19,72.9,59.0,48.3,45.1,30.8,20.0,73,38,18,30.12,30.01,9,0,13,0.00
2014-11-20,67.8,57.4,45.8,52.8,43.2,33.7,82,61,38,30.09,29.93,9,0,11,0.00
2014-11-21,69.2,58.7,50.4,52.0,48.2,43.9,86,70,46,30.04,29.88,11,0,13,0.02
2014-11-22,71.1,57.9,46.1,48.4,45.0,41.0,84,65,36,30.10,29.96,11,0,11,0.00
2014-11-23,76.6,61.4,49.7,48.0,31.9,18.9,79,39,12,30.16,30.00,19,2,24,0.00
2014-11-24,76.0,59.2,47.5,31.9,24.5,18.4,39,27,16,30.34,30.13,7,0,9,0.00
2014-11-25,77.7,60.8,46.5,30.4,23.5,18.6,39,25,13,30.40,30.24,7,0,9,0.00
2014-11-26,87.2,67.2,51.2,41.1,31.6,22.6,39,28,15,30.26,30.10,9,0,9,0.00
2014-11-27,87.8,69.5,56.5,39.6,31.1,25.6,35,25,14,30.12,29.97,7,0,11,0.00
2014-11-28,82.5,63.6,53.2,40.3,30.1,24.1,39,29,18,29.98,29.83,7,0,9,0.00
2014-11-29,77.1,61.2,49.2,45.2,34.6,27.6,77,39,23,29.90,29.77,6,0,8,0.00
2014-11-30,66.0,57.8,50.7,54.5,50.9,44.1,87,78,57,30.09,29.87,15,1,15,0.04
2014-12-1,67.8,58.8,50.9,53.8,49.4,43.6,89,72,54,30.16,30.00,5,0,5,0.00
2014-12-2,60.4,56.9,54.9,54.2,49.2,38.7,92,77,49,30.01,29.87,7,0,7,1.00
2014-12-3,66.0,59.6,55.8,61.1,56.2,53.5,93,89,79,29.99,29.88,11,1,12,0.55
2014-12-4,68.0,60.3,52.7,58.6,54.0,47.3,95,81,56,30.06,29.89,7,0,9,0.22
2014-12-5,67.1,58.2,49.8,53.5,49.4,45.2,86,73,54,30.12,30.02,6,0,7,0.00
2014-12-6,69.2,58.9,51.5,55.5,51.4,47.8,90,77,57,30.19,30.11,7,0,9,0.00
2014-12-7,74.7,61.2,51.0,50.6,47.6,44.4,82,63,38,30.20,30.06,10,0,10,0.00
2014-12-8,77.4,62.3,53.2,49.2,45.4,42.2,72,56,34,30.09,30.00,10,0,12,0.00
2014-12-9,77.1,61.8,49.8,47.9,43.0,40.2,70,52,27,30.09,29.95,6,0,7,0.00
2014-12-10,74.0,60.5,50.6,48.3,41.5,36.7,62,51,31,30.00,29.90,7,0,7,0.00
2014-12-11,69.1,59.0,52.0,53.2,48.0,40.8,85,68,51,29.97,29.84,13,0,13,0.00
2014-12-12,57.7,52.9,49.6,50.9,48.6,46.3,90,85,71,30.05,29.80,19,2,20,0.87
2014-12-13,61.1,51.3,43.7,48.1,43.6,39.5,91,76,53,30.12,30.05,10,0,11,0.00
2014-12-14,61.7,50.0,40.4,43.9,39.9,36.0,86,70,48,30.13,30.04,6,0,7,0.00
2014-12-15,62.9,51.8,42.3,42.4,38.0,35.1,78,61,40,30.07,29.95,7,0,10,0.00
2014-12-16,56.9,51.4,46.1,48.5,45.1,37.3,90,79,68,30.02,29.94,7,0,10,0.13
2014-12-17,59.0,52.6,47.6,48.9,46.3,43.7,92,80,63,30.11,29.92,12,0,15,0.35
2014-12-18,60.9,50.6,42.0,46.8,42.7,39.0,90,75,52,30.21,30.09,7,0,7,0.00
2014-12-19,63.8,48.6,43.5,43.8,40.2,37.6,85,74,47,30.24,30.16,5,0,6,0.00
2014-12-22,60.0,57.4,55.6,48.2,46.4,43.4,72,67,62,30.00,29.96,6,0,7,0.00
2014-12-23,79.6,65.0,53.5,45.3,41.0,35.5,67,43,27,30.09,29.98,12,1,13,0.00
2014-12-24,71.0,58.6,48.0,44.2,38.7,31.3,71,49,34,30.08,29.79,7,0,10,0.00
2014-12-25,59.0,52.9,44.8,46.9,29.5,16.8,80,43,21,29.93,29.74,22,5,27,0.00
2014-12-26,59.0,48.7,38.1,23.6,20.3,15.9,50,33,23,30.22,29.90,15,1,17,0.00
2014-12-27,58.5,45.5,34.4,24.0,20.9,18.1,56,39,23,30.34,30.22,10,0,11,0.00
2014-12-28,59.0,45.8,35.3,29.9,24.8,20.3,63,45,25,30.31,30.15,6,0,7,0.00
2014-12-29,58.9,45.9,34.6,38.5,32.3,27.2,75,60,41,30.17,30.01,9,0,11,0.00
2014-12-30,51.7,43.3,38.6,43.4,37.9,29.7,89,81,65,30.04,29.89,15,0,21,0.34
2014-12-31,47.3,41.0,33.4,32.4,18.9,13.9,78,43,27,30.06,29.94,23,5,27,0.00
2015-1-1,53.4,41.0,30.6,29.9,25.6,21.7,73,56,35,30.17,30.05,9,0,10,0.00
2015-1-2,55.7,43.2,31.9,34.3,29.4,23.4,78,59,41,30.17,30.05,9,0,10,0.00